Time;durP1;ratioP1;P1;durP2;ratioP2;P2;SDS_P1;SDS_P2;PMS_P1;PMS_P2;Temp;Humidity;BMP_temperature;BMP_pressure;BME280_temperature;BME280_humidity;BME280_pressure;Samples;Min_cycle;Max_cycle;Signal;HPM_P1;HPM_P2
2021/04/12 00:00:04;;;;;;;;;;;4.20;99.90;;;;;;5089001;28;19931;-71
2021/04/12 00:02:31;;;;;;;;;;;4.20;99.90;;;;;;5091393;28;19931;-71
2021/04/12 00:05:06;;;;;;;;;;;4.10;99.90;;;;;;5092589;28;20523;-71
2021/04/12 00:07:38;;;;;;;;;;;4.10;99.90;;;;;;5093537;28;19920;-70
2021/04/12 00:10:22;;;;;;;;;;;4.10;99.90;;;;;;5091007;28;20007;-71
2021/04/12 00:12:49;;;;;;;;;;;4.00;99.90;;;;;;5091090;28;19995;-71
2021/04/12 00:15:15;;;;;;;;;;;3.90;99.90;;;;;;5090461;28;20394;-71
2021/04/12 00:17:42;;;;;;;;;;;4.00;99.90;;;;;;5079090;28;19920;-71
2021/04/12 00:20:09;;;;;;;;;;;3.90;99.90;;;;;;5088314;28;19976;-70
2021/04/12 00:22:57;;;;;;;;;;;4.00;99.90;;;;;;5113049;27;20346;-70
2021/04/12 00:25:41;;;;;;;;;;;3.90;99.90;;;;;;5094074;28;20304;-70
2021/04/12 00:28:10;;;;;;;;;;;3.90;99.90;;;;;;5097581;28;19917;-70
2021/04/12 00:30:58;;;;;;;;;;;3.90;99.90;;;;;;5090910;28;19955;-71
2021/04/12 00:33:42;;;;;;;;;;;3.90;99.90;;;;;;5087170;28;19916;-71
2021/04/12 00:36:13;;;;;;;;;;;3.80;99.90;;;;;;5082644;28;20012;-70
2021/04/12 00:38:41;;;;;;;;;;;3.80;99.90;;;;;;5063396;28;20289;-70
2021/04/12 00:41:07;;;;;;;;;;;3.80;99.90;;;;;;5075926;28;19912;-70
2021/04/12 00:43:45;;;;;;;;;;;3.80;99.90;;;;;;5076554;28;19920;-70
2021/04/12 00:46:37;;;;;;;;;;;3.80;99.90;;;;;;5096920;28;19916;-71
2021/04/12 00:49:38;;;;;;;;;;;3.90;99.90;;;;;;5053995;28;19931;-71
2021/04/12 00:52:11;;;;;;;;;;;3.90;99.90;;;;;;5051925;28;19927;-71
2021/04/12 00:54:56;;;;;;;;;;;3.90;99.90;;;;;;5082690;28;19966;-71
2021/04/12 00:57:36;;;;;;;;;;;3.90;99.90;;;;;;5086552;28;19912;-71
2021/04/12 01:00:08;;;;;;;;;;;4.00;99.90;;;;;;5077416;28;20607;-71
2021/04/12 01:02:52;;;;;;;;;;;3.90;99.90;;;;;;5079874;28;20521;-70
2021/04/12 01:05:36;;;;;;;;;;;3.80;99.90;;;;;;5094720;28;20015;-71
2021/04/12 01:08:20;;;;;;;;;;;3.90;99.90;;;;;;5086646;28;19919;-71
2021/04/12 01:10:52;;;;;;;;;;;3.80;99.90;;;;;;5080758;28;19961;-71
2021/04/12 01:13:18;;;;;;;;;;;3.80;99.90;;;;;;5095517;28;19919;-71
2021/04/12 01:15:59;;;;;;;;;;;3.70;99.90;;;;;;5088907;28;20478;-70
2021/04/12 01:18:43;;;;;;;;;;;3.80;99.90;;;;;;5077306;28;20007;-70
2021/04/12 01:21:28;;;;;;;;;;;3.70;99.90;;;;;;5093395;28;19928;-71
2021/04/12 01:24:12;;;;;;;;;;;3.70;99.90;;;;;;5092442;28;20006;-71
2021/04/12 01:26:53;;;;;;;;;;;3.70;99.90;;;;;;5086359;28;19923;-70
2021/04/12 01:29:44;;;;;;;;;;;3.70;99.90;;;;;;5075497;28;19927;-71
2021/04/12 01:32:28;;;;;;;;;;;3.70;99.90;;;;;;5082520;28;19916;-71
2021/04/12 01:34:57;;;;;;;;;;;3.70;99.90;;;;;;5105105;27;19916;-71
2021/04/12 01:37:28;;;;;;;;;;;3.70;99.90;;;;;;5081654;28;19916;-71
2021/04/12 01:40:13;;;;;;;;;;;3.70;99.90;;;;;;5076963;28;19971;-71
2021/04/12 01:42:41;;;;;;;;;;;3.70;99.90;;;;;;5076446;28;19924;-71
2021/04/12 01:45:25;;;;;;;;;;;3.70;99.90;;;;;;5075797;28;19924;-71
2021/04/12 01:48:09;;;;;;;;;;;3.70;99.90;;;;;;5079101;28;20034;-72
2021/04/12 01:50:53;;;;;;;;;;;3.70;99.90;;;;;;5078039;28;19946;-71
2021/04/12 01:53:25;;;;;;;;;;;3.60;99.90;;;;;;5090769;28;19916;-71
2021/04/12 01:56:05;;;;;;;;;;;3.70;99.90;;;;;;5087242;28;19922;-71
2021/04/12 01:58:40;;;;;;;;;;;3.70;99.90;;;;;;5077506;28;19920;-71
2021/04/12 02:01:32;;;;;;;;;;;3.70;99.90;;;;;;5077429;28;19912;-71
2021/04/12 02:04:00;;;;;;;;;;;3.70;99.90;;;;;;5089459;28;19924;-71
2021/04/12 02:06:40;;;;;;;;;;;3.70;99.90;;;;;;5090094;28;19946;-71
2021/04/12 02:09:25;;;;;;;;;;;3.70;99.90;;;;;;5063244;28;20373;-71
2021/04/12 02:12:10;;;;;;;;;;;3.70;99.90;;;;;;5075242;28;20517;-70
2021/04/12 02:14:39;;;;;;;;;;;3.70;99.90;;;;;;5083543;28;19916;-71
2021/04/12 02:17:25;;;;;;;;;;;3.80;99.90;;;;;;5089104;28;19928;-70
2021/04/12 02:19:56;;;;;;;;;;;3.80;99.90;;;;;;5058498;28;19951;-70
2021/04/12 02:22:24;;;;;;;;;;;3.80;99.90;;;;;;5093231;28;20092;-70
2021/04/12 02:25:02;;;;;;;;;;;3.70;99.90;;;;;;5086924;28;20477;-71
2021/04/12 02:27:46;;;;;;;;;;;3.70;99.90;;;;;;5076516;28;19920;-70
2021/04/12 02:30:20;;;;;;;;;;;3.70;99.90;;;;;;5076327;28;19916;-71
2021/04/12 02:32:48;;;;;;;;;;;3.60;99.90;;;;;;5088562;28;21787;-71
2021/04/12 02:35:33;;;;;;;;;;;3.70;99.90;;;;;;5087958;28;19952;-71
2021/04/12 02:38:14;;;;;;;;;;;3.60;99.90;;;;;;5090747;27;19921;-70
2021/04/12 02:41:00;;;;;;;;;;;3.60;99.90;;;;;;5075018;28;19931;-70
2021/04/12 02:43:44;;;;;;;;;;;3.70;99.90;;;;;;5074996;28;19989;-70
2021/04/12 02:46:13;;;;;;;;;;;3.70;99.90;;;;;;5076792;28;20013;-71
2021/04/12 02:48:41;;;;;;;;;;;3.70;99.90;;;;;;5088834;28;19920;-71
2021/04/12 02:51:25;;;;;;;;;;;3.80;99.90;;;;;;5088337;28;20042;-71
2021/04/12 02:53:57;;;;;;;;;;;3.80;99.90;;;;;;5089123;28;19912;-71
2021/04/12 02:56:26;;;;;;;;;;;3.80;99.90;;;;;;5094370;28;19916;-70
2021/04/12 02:58:58;;;;;;;;;;;3.80;99.90;;;;;;5090262;28;19935;-70
2021/04/12 03:01:35;;;;;;;;;;;3.80;99.90;;;;;;5083995;28;19915;-71
2021/04/12 03:04:08;;;;;;;;;;;3.80;99.90;;;;;;5090890;28;20474;-71
2021/04/12 03:07:03;;;;;;;;;;;3.90;99.90;;;;;;5103821;27;19923;-71
2021/04/12 03:09:50;;;;;;;;;;;3.80;99.90;;;;;;5045877;28;19921;-70
2021/04/12 03:12:34;;;;;;;;;;;3.90;99.90;;;;;;5084572;28;19919;-71
2021/04/12 03:15:18;;;;;;;;;;;3.90;99.90;;;;;;5123140;27;19916;-71
2021/04/12 03:17:52;;;;;;;;;;;3.90;99.90;;;;;;5074464;28;19931;-71
2021/04/12 03:20:36;;;;;;;;;;;3.90;99.90;;;;;;5074657;28;20278;-70
2021/04/12 03:23:16;;;;;;;;;;;3.90;99.90;;;;;;5082597;28;19923;-70
2021/04/12 03:26:00;;;;;;;;;;;3.90;99.90;;;;;;5091977;28;19926;-70
2021/04/12 03:28:37;;;;;;;;;;;3.80;99.90;;;;;;5075584;28;19957;-71
2021/04/12 03:31:18;;;;;;;;;;;3.90;99.90;;;;;;5076052;28;19916;-71
2021/04/12 03:34:02;;;;;;;;;;;3.90;99.90;;;;;;5080755;28;19966;-70
2021/04/12 03:36:34;;;;;;;;;;;3.80;99.90;;;;;;5085136;28;20462;-70
2021/04/12 03:39:05;;;;;;;;;;;3.80;99.90;;;;;;5074287;28;20655;-71
2021/04/12 03:41:36;;;;;;;;;;;3.80;99.90;;;;;;5075110;28;19920;-71
2021/04/12 03:44:20;;;;;;;;;;;3.70;99.90;;;;;;5095241;28;20538;-71
2021/04/12 03:46:54;;;;;;;;;;;3.70;99.90;;;;;;5091923;28;19918;-71
2021/04/12 03:49:20;;;;;;;;;;;3.60;99.90;;;;;;5077002;28;19917;-70
2021/04/12 03:51:48;;;;;;;;;;;3.60;99.90;;;;;;5074576;28;19943;-71
2021/04/12 03:54:48;;;;;;;;;;;3.60;99.90;;;;;;5075560;28;20011;-70
2021/04/12 03:57:32;;;;;;;;;;;3.60;99.90;;;;;;5073115;28;19988;-71
2021/04/12 04:00:10;;;;;;;;;;;3.60;99.90;;;;;;5084788;28;19981;-70
2021/04/12 04:02:40;;;;;;;;;;;3.60;99.90;;;;;;5089068;28;19998;-70
2021/04/12 04:05:06;;;;;;;;;;;3.60;99.90;;;;;;5086417;28;19920;-71
2021/04/12 04:07:36;;;;;;;;;;;3.60;99.90;;;;;;5073217;28;19916;-72
2021/04/12 04:10:23;;;;;;;;;;;3.60;99.90;;;;;;5090871;28;19946;-71
2021/04/12 04:13:04;;;;;;;;;;;3.60;99.90;;;;;;5096825;28;19978;-71
2021/04/12 04:15:38;;;;;;;;;;;3.60;99.90;;;;;;5088640;28;19927;-72
2021/04/12 04:18:04;;;;;;;;;;;3.50;99.90;;;;;;5093558;28;19916;-71
2021/04/12 04:20:48;;;;;;;;;;;3.50;99.90;;;;;;5093513;28;19974;-71
2021/04/12 04:23:21;;;;;;;;;;;3.60;99.90;;;;;;5092388;28;19930;-71
2021/04/12 04:25:53;;;;;;;;;;;3.50;99.90;;;;;;5094779;28;19912;-71
2021/04/12 04:28:37;;;;;;;;;;;3.50;99.90;;;;;;5082908;28;19920;-71
2021/04/12 04:31:27;;;;;;;;;;;3.50;99.90;;;;;;5082215;28;19927;-71
2021/04/12 04:33:58;;;;;;;;;;;3.50;99.90;;;;;;5093562;28;19911;-71
2021/04/12 04:36:28;;;;;;;;;;;3.50;99.90;;;;;;5081683;28;19927;-71
2021/04/12 04:39:04;;;;;;;;;;;3.50;99.90;;;;;;5088721;28;19938;-71
2021/04/12 04:41:50;;;;;;;;;;;3.50;99.90;;;;;;5094402;28;19912;-71
2021/04/12 04:44:34;;;;;;;;;;;3.50;99.90;;;;;;5095183;28;19916;-71
2021/04/12 04:47:00;;;;;;;;;;;3.50;99.90;;;;;;5097498;28;19927;-71
2021/04/12 04:49:44;;;;;;;;;;;3.50;99.90;;;;;;5085651;28;19916;-71
2021/04/12 04:52:10;;;;;;;;;;;3.50;99.90;;;;;;5078324;28;20041;-71
2021/04/12 04:54:50;;;;;;;;;;;3.40;99.90;;;;;;5077500;28;20456;-71
2021/04/12 04:57:34;;;;;;;;;;;3.50;99.90;;;;;;5077753;28;19920;-71
2021/04/12 05:00:09;;;;;;;;;;;3.50;99.90;;;;;;5095172;27;19923;-71
2021/04/12 05:02:43;;;;;;;;;;;3.40;99.90;;;;;;5090493;28;20346;-71
2021/04/12 05:05:27;;;;;;;;;;;3.30;99.90;;;;;;5090214;28;19916;-71
2021/04/12 05:08:11;;;;;;;;;;;3.30;99.90;;;;;;5108743;27;19930;-71
2021/04/12 05:10:39;;;;;;;;;;;3.30;99.90;;;;;;5093813;28;19981;-71
2021/04/12 05:13:16;;;;;;;;;;;3.30;99.90;;;;;;5092475;28;19927;-71
2021/04/12 05:16:00;;;;;;;;;;;3.30;99.90;;;;;;5080456;28;19985;-71
2021/04/12 05:18:29;;;;;;;;;;;3.40;99.90;;;;;;5082839;28;19921;-71
2021/04/12 05:20:54;;;;;;;;;;;3.40;99.90;;;;;;5088480;28;20381;-71
2021/04/12 05:23:29;;;;;;;;;;;3.50;99.90;;;;;;5111789;27;20345;-72
2021/04/12 05:26:17;;;;;;;;;;;3.50;99.90;;;;;;5088473;28;19913;-71
2021/04/12 05:28:43;;;;;;;;;;;3.50;99.90;;;;;;5083983;28;19916;-71
2021/04/12 05:31:24;;;;;;;;;;;3.50;99.90;;;;;;5085669;28;19926;-71
2021/04/12 05:33:55;;;;;;;;;;;3.60;99.90;;;;;;5094776;28;19919;-71
2021/04/12 05:36:39;;;;;;;;;;;3.70;99.90;;;;;;5091090;28;19969;-71
2021/04/12 05:39:08;;;;;;;;;;;3.70;99.90;;;;;;5103096;27;19959;-71
2021/04/12 05:41:33;;;;;;;;;;;3.80;99.90;;;;;;5087856;28;20182;-71
2021/04/12 05:44:08;;;;;;;;;;;3.80;99.90;;;;;;5090695;28;19931;-71
2021/04/12 05:46:35;;;;;;;;;;;3.90;99.90;;;;;;5123181;27;20312;-71
2021/04/12 05:49:22;;;;;;;;;;;3.90;99.90;;;;;;5075725;28;19980;-71
2021/04/12 05:51:54;;;;;;;;;;;4.00;99.90;;;;;;5081392;28;19920;-71
2021/04/12 05:54:38;;;;;;;;;;;4.00;99.90;;;;;;5093237;28;19927;-71
2021/04/12 05:57:11;;;;;;;;;;;4.10;99.90;;;;;;5086897;28;19920;-71
2021/04/12 06:00:02;;;;;;;;;;;4.10;99.90;;;;;;5074764;28;19912;-71
2021/04/12 06:02:37;;;;;;;;;;;4.10;99.90;;;;;;5106261;27;19920;-72
2021/04/12 06:05:02;;;;;;;;;;;4.20;99.90;;;;;;5085262;28;19995;-74
2021/04/12 06:07:37;;;;;;;;;;;4.20;99.90;;;;;;5085576;28;20024;-74
2021/04/12 06:10:18;;;;;;;;;;;4.20;99.90;;;;;;5088993;27;20373;-71
2021/04/12 06:13:08;;;;;;;;;;;4.20;99.90;;;;;;5089189;28;20438;-73
2021/04/12 06:15:37;;;;;;;;;;;4.30;99.90;;;;;;5086186;28;20455;-74
2021/04/12 06:18:15;;;;;;;;;;;4.30;99.90;;;;;;5092649;28;20005;-71
2021/04/12 06:21:15;;;;;;;;;;;4.30;99.90;;;;;;5104737;27;19943;-72
2021/04/12 06:23:56;;;;;;;;;;;4.40;99.90;;;;;;5067518;28;19988;-72
2021/04/12 06:26:36;;;;;;;;;;;4.40;99.90;;;;;;5086767;28;20357;-72
2021/04/12 06:29:23;;;;;;;;;;;4.50;99.90;;;;;;5094853;28;19916;-72
2021/04/12 06:32:08;;;;;;;;;;;4.50;99.90;;;;;;5090961;28;20028;-72
2021/04/12 06:34:38;;;;;;;;;;;4.50;99.90;;;;;;5089888;28;20356;-71
2021/04/12 06:37:09;;;;;;;;;;;4.50;99.90;;;;;;5082748;28;20365;-72
2021/04/12 06:39:51;;;;;;;;;;;4.50;99.90;;;;;;5089574;28;20104;-72
2021/04/12 06:42:21;;;;;;;;;;;4.60;99.90;;;;;;5090853;28;20482;-72
2021/04/12 06:44:46;;;;;;;;;;;4.50;99.90;;;;;;5090685;28;19912;-72
2021/04/12 06:47:15;;;;;;;;;;;4.50;99.90;;;;;;5085811;28;19972;-71
2021/04/12 06:50:04;;;;;;;;;;;4.50;99.90;;;;;;5085525;28;19943;-71
2021/04/12 06:52:48;;;;;;;;;;;4.60;99.90;;;;;;5082956;28;19915;-72
2021/04/12 06:55:24;;;;;;;;;;;4.60;99.90;;;;;;5082942;28;19919;-74
2021/04/12 06:58:08;;;;;;;;;;;4.50;99.90;;;;;;5085300;28;19952;-74
2021/04/12 07:00:43;;;;;;;;;;;4.40;99.90;;;;;;5088460;28;19964;-72
2021/04/12 07:03:21;;;;;;;;;;;4.40;99.90;;;;;;5102558;27;20016;-72
2021/04/12 07:05:59;;;;;;;;;;;4.50;99.90;;;;;;5089895;28;19912;-72
2021/04/12 07:08:33;;;;;;;;;;;4.50;99.90;;;;;;5097813;28;19912;-72
2021/04/12 07:11:04;;;;;;;;;;;4.60;99.90;;;;;;5091791;28;19912;-72
2021/04/12 07:13:39;;;;;;;;;;;4.60;99.90;;;;;;5084630;28;20464;-71
2021/04/12 07:16:11;;;;;;;;;;;4.60;99.90;;;;;;5085623;28;20373;-72
2021/04/12 07:18:36;;;;;;;;;;;4.60;99.90;;;;;;5086421;28;19928;-72
2021/04/12 07:21:23;;;;;;;;;;;4.70;99.90;;;;;;5087097;28;19912;-76
2021/04/12 07:23:49;;;;;;;;;;;4.70;99.90;;;;;;5085281;28;19990;-72
2021/04/12 07:26:27;;;;;;;;;;;4.70;99.90;;;;;;5092880;28;20506;-72
2021/04/12 07:29:11;;;;;;;;;;;4.70;99.90;;;;;;5084495;28;19921;-72
2021/04/12 07:31:37;;;;;;;;;;;4.70;99.90;;;;;;5088640;28;19978;-72
2021/04/12 07:34:06;;;;;;;;;;;4.90;99.90;;;;;;5086083;28;20464;-72
2021/04/12 07:36:43;;;;;;;;;;;4.90;99.90;;;;;;5084048;28;19927;-72
2021/04/12 07:39:11;;;;;;;;;;;5.00;99.90;;;;;;5087753;28;19953;-71
2021/04/12 07:41:51;;;;;;;;;;;4.90;99.90;;;;;;5087176;28;19912;-72
2021/04/12 07:44:36;;;;;;;;;;;4.90;99.90;;;;;;5093512;28;19923;-72
2021/04/12 07:47:22;;;;;;;;;;;4.90;99.90;;;;;;5084290;28;19931;-73
2021/04/12 07:50:09;;;;;;;;;;;4.70;99.90;;;;;;5090681;28;19915;-72
2021/04/12 07:52:34;;;;;;;;;;;4.80;99.90;;;;;;5085464;28;19919;-72
2021/04/12 07:55:19;;;;;;;;;;;4.80;99.90;;;;;;5089199;28;19923;-72
2021/04/12 07:58:03;;;;;;;;;;;4.80;99.90;;;;;;5089733;28;19916;-72
2021/04/12 08:00:47;;;;;;;;;;;4.90;99.90;;;;;;5098164;28;21924;-72
2021/04/12 08:03:18;;;;;;;;;;;5.10;99.90;;;;;;5091429;28;20062;-72
2021/04/12 08:06:03;;;;;;;;;;;5.00;99.90;;;;;;5089837;28;19917;-72
2021/04/12 08:08:33;;;;;;;;;;;5.00;99.90;;;;;;5088311;28;19979;-72
2021/04/12 08:10:59;;;;;;;;;;;5.00;99.90;;;;;;5074274;28;19931;-72
2021/04/12 08:13:43;;;;;;;;;;;5.00;99.90;;;;;;5092588;28;19935;-72
2021/04/12 08:16:28;;;;;;;;;;;5.00;99.90;;;;;;5103936;27;19912;-72
2021/04/12 08:19:05;;;;;;;;;;;4.90;99.90;;;;;;5091231;28;19967;-72
2021/04/12 08:21:31;;;;;;;;;;;4.80;99.90;;;;;;5093633;28;20026;-72
2021/04/12 08:24:35;;;;;;;;;;;4.70;99.90;;;;;;5091313;28;20319;-72
2021/04/12 08:27:06;;;;;;;;;;;4.60;99.90;;;;;;5027422;28;20361;-72
2021/04/12 08:29:37;;;;;;;;;;;4.70;99.90;;;;;;5027586;28;19928;-72
2021/04/12 08:32:21;;;;;;;;;;;4.60;98.50;;;;;;5062593;28;19920;-71
2021/04/12 08:34:59;;;;;;;;;;;4.50;97.00;;;;;;5094700;28;19919;-72
2021/04/12 08:37:36;;;;;;;;;;;4.50;99.90;;;;;;5088856;28;19982;-71
2021/04/12 08:40:02;;;;;;;;;;;4.40;94.70;;;;;;5089123;28;20052;-71
2021/04/12 08:42:30;;;;;;;;;;;4.50;98.10;;;;;;5092299;28;20014;-72
2021/04/12 08:44:55;;;;;;;;;;;4.50;99.30;;;;;;5089836;28;19912;-72
2021/04/12 08:47:40;;;;;;;;;;;4.60;98.60;;;;;;5091482;28;19919;-72
2021/04/12 08:50:05;;;;;;;;;;;4.60;96.40;;;;;;5091163;28;19964;-71
2021/04/12 08:53:12;;;;;;;;;;;4.80;99.90;;;;;;5091079;28;19920;-71
2021/04/12 08:55:42;;;;;;;;;;;5.00;99.90;;;;;;5030184;28;19928;-71
2021/04/12 08:58:08;;;;;;;;;;;5.00;96.50;;;;;;5029578;28;20003;-71
2021/04/12 09:00:42;;;;;;;;;;;5.30;98.40;;;;;;5029793;28;20246;-72
2021/04/12 09:03:25;;;;;;;;;;;5.50;92.60;;;;;;5027342;28;19917;-71
2021/04/12 09:05:51;;;;;;;;;;;5.70;95.70;;;;;;5029646;28;20007;-72
2021/04/12 09:08:35;;;;;;;;;;;5.80;92.30;;;;;;5028463;28;20787;-72
2021/04/12 09:11:04;;;;;;;;;;;5.80;89.00;;;;;;5018346;28;19913;-72
2021/04/12 09:13:54;;;;;;;;;;;5.80;91.60;;;;;;5047995;28;19947;-71
2021/04/12 09:16:22;;;;;;;;;;;5.80;89.50;;;;;;5027992;28;20381;-72
2021/04/12 09:19:08;;;;;;;;;;;6.00;90.00;;;;;;5028630;28;20652;-72
2021/04/12 09:21:40;;;;;;;;;;;6.00;88.90;;;;;;5029575;28;19925;-72
2021/04/12 09:24:24;;;;;;;;;;;6.00;89.70;;;;;;5027143;28;19922;-71
2021/04/12 09:27:10;;;;;;;;;;;5.80;84.40;;;;;;5070081;28;19951;-71
2021/04/12 09:29:50;;;;;;;;;;;5.50;86.20;;;;;;5089409;28;19916;-71
2021/04/12 09:32:34;;;;;;;;;;;5.50;86.60;;;;;;5090520;28;19974;-71
2021/04/12 09:35:11;;;;;;;;;;;5.60;91.50;;;;;;5093884;28;19943;-73
2021/04/12 09:37:40;;;;;;;;;;;5.40;85.40;;;;;;5091313;28;19951;-71
2021/04/12 09:40:24;;;;;;;;;;;5.60;90.10;;;;;;5103974;27;19976;-71
2021/04/12 09:43:08;;;;;;;;;;;5.70;87.60;;;;;;5092365;28;20023;-71
2021/04/12 09:45:40;;;;;;;;;;;5.80;83.00;;;;;;5088231;28;19924;-71
2021/04/12 09:48:08;;;;;;;;;;;5.70;85.60;;;;;;5091072;28;19920;-71
2021/04/12 09:50:36;;;;;;;;;;;5.70;80.30;;;;;;5119085;27;19938;-71
2021/04/12 09:53:20;;;;;;;;;;;6.10;86.30;;;;;;5091888;28;19962;-71
2021/04/12 09:55:46;;;;;;;;;;;6.40;91.10;;;;;;5088648;28;19912;-71
2021/04/12 09:58:21;;;;;;;;;;;6.70;84.50;;;;;;5089091;28;19927;-71
2021/04/12 10:00:55;;;;;;;;;;;7.00;90.10;;;;;;5092033;28;20399;-71
2021/04/12 10:03:40;;;;;;;;;;;7.20;83.70;;;;;;5093032;28;19920;-71
2021/04/12 10:06:24;;;;;;;;;;;7.10;76.90;;;;;;5089679;28;19963;-71
2021/04/12 10:09:08;;;;;;;;;;;6.90;78.70;;;;;;5087434;28;19920;-71
2021/04/12 10:11:46;;;;;;;;;;;6.80;80.00;;;;;;5092107;28;20580;-71
2021/04/12 10:14:16;;;;;;;;;;;6.60;78.30;;;;;;5087466;28;19919;-71
2021/04/12 10:16:46;;;;;;;;;;;6.50;78.00;;;;;;5086990;28;19912;-71
2021/04/12 10:19:18;;;;;;;;;;;6.30;75.60;;;;;;5088982;28;19927;-71
2021/04/12 10:21:43;;;;;;;;;;;6.30;80.80;;;;;;5090160;28;20093;-71
2021/04/12 10:24:09;;;;;;;;;;;6.30;78.10;;;;;;5091780;28;20032;-71
2021/04/12 10:26:42;;;;;;;;;;;6.30;79.90;;;;;;5091529;28;19916;-71
2021/04/12 10:29:08;;;;;;;;;;;6.20;77.60;;;;;;5103218;27;19916;-71
2021/04/12 10:31:37;;;;;;;;;;;6.00;78.90;;;;;;5090804;28;19920;-71
2021/04/12 10:34:11;;;;;;;;;;;6.00;82.10;;;;;;5088555;28;19912;-70
2021/04/12 10:36:51;;;;;;;;;;;6.00;83.60;;;;;;5090529;28;19945;-71
2021/04/12 10:39:40;;;;;;;;;;;6.00;79.10;;;;;;5086729;28;20424;-72
2021/04/12 10:42:32;;;;;;;;;;;6.10;80.30;;;;;;5080702;28;19920;-71
2021/04/12 10:45:05;;;;;;;;;;;6.30;82.90;;;;;;5087367;28;19916;-71
2021/04/12 10:47:43;;;;;;;;;;;6.50;79.30;;;;;;5087918;28;20624;-71
2021/04/12 10:50:17;;;;;;;;;;;6.40;75.80;;;;;;5090619;28;19946;-71
2021/04/12 10:53:01;;;;;;;;;;;6.50;76.70;;;;;;5091396;28;19927;-71
2021/04/12 10:55:27;;;;;;;;;;;6.60;80.40;;;;;;5089911;28;19919;-73
2021/04/12 10:57:58;;;;;;;;;;;6.60;79.70;;;;;;5087744;28;19919;-74
2021/04/12 11:00:24;;;;;;;;;;;6.60;78.70;;;;;;5089172;28;19967;-71
2021/04/12 11:03:05;;;;;;;;;;;6.50;78.10;;;;;;5084729;28;19971;-71
2021/04/12 11:05:33;;;;;;;;;;;6.50;75.70;;;;;;5088925;28;19926;-71
2021/04/12 11:08:06;;;;;;;;;;;6.70;78.50;;;;;;5089336;28;19916;-71
2021/04/12 11:10:32;;;;;;;;;;;6.50;77.30;;;;;;5088522;28;19924;-71
2021/04/12 11:12:59;;;;;;;;;;;6.90;82.10;;;;;;5088802;28;19937;-70
2021/04/12 11:15:36;;;;;;;;;;;7.10;74.50;;;;;;5067505;28;20001;-71
2021/04/12 11:18:02;;;;;;;;;;;7.20;71.20;;;;;;5076976;28;20505;-70
2021/04/12 11:20:31;;;;;;;;;;;7.70;77.00;;;;;;5090168;28;19912;-71
2021/04/12 11:23:03;;;;;;;;;;;7.80;72.70;;;;;;5118956;27;20031;-71
2021/04/12 11:25:37;;;;;;;;;;;7.70;68.20;;;;;;5087491;28;19923;-71
2021/04/12 11:28:24;;;;;;;;;;;7.40;66.20;;;;;;5127338;27;19920;-70
2021/04/12 11:30:58;;;;;;;;;;;7.60;68.90;;;;;;5110141;27;19931;-70
2021/04/12 11:33:32;;;;;;;;;;;7.70;67.00;;;;;;5110263;27;19928;-71
2021/04/12 11:36:14;;;;;;;;;;;7.90;67.80;;;;;;5094348;28;19916;-71
2021/04/12 11:38:40;;;;;;;;;;;8.20;69.70;;;;;;5099624;28;19912;-70
2021/04/12 11:41:09;;;;;;;;;;;8.70;69.20;;;;;;5097917;28;19923;-70
2021/04/12 11:43:38;;;;;;;;;;;9.20;61.50;;;;;;5094355;28;19924;-70
2021/04/12 11:46:08;;;;;;;;;;;9.50;65.60;;;;;;5090508;28;19923;-70
2021/04/12 11:48:33;;;;;;;;;;;9.90;65.40;;;;;;5092149;28;19923;-70
2021/04/12 11:51:05;;;;;;;;;;;9.40;61.70;;;;;;5094406;28;19916;-70
2021/04/12 11:53:30;;;;;;;;;;;9.20;60.50;;;;;;5108446;27;20285;-71
2021/04/12 11:55:56;;;;;;;;;;;8.90;63.90;;;;;;5093821;28;19927;-70
2021/04/12 11:58:28;;;;;;;;;;;9.10;64.30;;;;;;5092005;28;20391;-71
2021/04/12 12:01:01;;;;;;;;;;;9.40;69.70;;;;;;5093471;28;19951;-71
2021/04/12 12:03:48;;;;;;;;;;;9.40;64.10;;;;;;5097141;28;19915;-70
2021/04/12 12:06:16;;;;;;;;;;;9.70;64.30;;;;;;5096098;28;20357;-71
2021/04/12 12:09:01;;;;;;;;;;;10.20;63.70;;;;;;5112626;27;20497;-70
2021/04/12 12:11:31;;;;;;;;;;;10.50;62.60;;;;;;5092734;28;19926;-70
2021/04/12 12:13:59;;;;;;;;;;;10.30;62.90;;;;;;5095463;28;19913;-70
2021/04/12 12:16:27;;;;;;;;;;;10.30;63.20;;;;;;5092498;28;19931;-70
2021/04/12 12:19:15;;;;;;;;;;;10.10;62.90;;;;;;5095997;28;19920;-69
2021/04/12 12:22:04;;;;;;;;;;;9.60;61.00;;;;;;5110343;27;19985;-69
2021/04/12 12:24:36;;;;;;;;;;;9.20;63.40;;;;;;5088918;28;20293;-69
2021/04/12 12:27:15;;;;;;;;;;;9.00;60.60;;;;;;5096544;27;20390;-69
2021/04/12 12:29:45;;;;;;;;;;;9.00;61.30;;;;;;5090313;28;19978;-70
2021/04/12 12:32:14;;;;;;;;;;;8.60;61.70;;;;;;5108684;27;20395;-70
2021/04/12 12:34:40;;;;;;;;;;;8.50;64.00;;;;;;5092640;28;20287;-69
2021/04/12 12:37:24;;;;;;;;;;;8.50;64.30;;;;;;5095334;28;20466;-69
2021/04/12 12:39:50;;;;;;;;;;;8.20;63.40;;;;;;5093753;28;19920;-69
2021/04/12 12:42:30;;;;;;;;;;;8.00;66.60;;;;;;5088209;28;20312;-69
2021/04/12 12:45:01;;;;;;;;;;;8.10;67.20;;;;;;5093733;28;19923;-69
2021/04/12 12:47:26;;;;;;;;;;;8.60;66.50;;;;;;5093189;28;19920;-69
2021/04/12 12:49:56;;;;;;;;;;;9.10;72.00;;;;;;5105872;27;19916;-69
2021/04/12 12:52:28;;;;;;;;;;;9.40;67.50;;;;;;5088392;28;20015;-69
2021/04/12 12:54:53;;;;;;;;;;;9.40;65.90;;;;;;5094438;28;19912;-69
2021/04/12 12:57:22;;;;;;;;;;;9.10;65.20;;;;;;5105043;27;19922;-69
2021/04/12 12:59:50;;;;;;;;;;;9.00;68.10;;;;;;5091362;28;20365;-69
2021/04/12 13:02:25;;;;;;;;;;;9.20;69.10;;;;;;5089258;28;19920;-69
2021/04/12 13:04:52;;;;;;;;;;;9.40;73.20;;;;;;5090353;28;19916;-69
2021/04/12 13:07:18;;;;;;;;;;;9.90;69.80;;;;;;5093525;28;19920;-70
2021/04/12 13:09:54;;;;;;;;;;;10.20;65.90;;;;;;5072352;28;19916;-69
2021/04/12 13:12:20;;;;;;;;;;;10.80;68.70;;;;;;5094229;28;20386;-69
2021/04/12 13:14:49;;;;;;;;;;;10.90;63.90;;;;;;5087031;28;20011;-69
2021/04/12 13:17:14;;;;;;;;;;;11.50;63.80;;;;;;5089522;28;20580;-69
2021/04/12 13:19:44;;;;;;;;;;;11.50;62.70;;;;;;5107291;27;20023;-69
2021/04/12 13:22:09;;;;;;;;;;;11.90;62.50;;;;;;5091048;28;19920;-68
2021/04/12 13:24:36;;;;;;;;;;;11.50;61.90;;;;;;5094310;28;19930;-69
2021/04/12 13:27:05;;;;;;;;;;;11.70;64.10;;;;;;5119278;27;19927;-69
2021/04/12 13:29:48;;;;;;;;;;;11.50;60.00;;;;;;5089799;28;20265;-69
2021/04/12 13:32:14;;;;;;;;;;;11.60;60.00;;;;;;5091739;28;19932;-69
2021/04/12 13:34:40;;;;;;;;;;;11.20;63.00;;;;;;5093131;28;19920;-69
2021/04/12 13:37:12;;;;;;;;;;;10.50;59.60;;;;;;5088828;28;20461;-68
2021/04/12 13:39:40;;;;;;;;;;;10.70;62.90;;;;;;5092523;28;19918;-69
2021/04/12 13:42:25;;;;;;;;;;;10.90;65.50;;;;;;5088312;28;19916;-70
2021/04/12 13:44:56;;;;;;;;;;;11.00;65.00;;;;;;5088901;28;19920;-67
2021/04/12 13:47:27;;;;;;;;;;;10.30;60.00;;;;;;5090763;28;19963;-68
2021/04/12 13:49:56;;;;;;;;;;;10.10;61.90;;;;;;5086711;28;20003;-69
2021/04/12 13:52:23;;;;;;;;;;;10.00;63.30;;;;;;5086599;28;19956;-69
2021/04/12 13:54:49;;;;;;;;;;;10.00;63.30;;;;;;5090284;28;19915;-69
2021/04/12 13:57:18;;;;;;;;;;;9.80;64.90;;;;;;5093437;28;19916;-70
2021/04/12 13:59:44;;;;;;;;;;;9.60;61.40;;;;;;5105435;27;19965;-68
2021/04/12 14:02:17;;;;;;;;;;;9.70;65.00;;;;;;5087815;28;19947;-69
2021/04/12 14:04:46;;;;;;;;;;;10.20;68.10;;;;;;5086217;28;20388;-69
2021/04/12 14:07:11;;;;;;;;;;;10.10;62.00;;;;;;5091591;28;19912;-69
2021/04/12 14:09:48;;;;;;;;;;;10.00;60.50;;;;;;5091485;28;19912;-69
2021/04/12 14:12:15;;;;;;;;;;;9.90;61.00;;;;;;5076113;28;19916;-69
2021/04/12 14:14:46;;;;;;;;;;;9.40;60.20;;;;;;5088710;28;19950;-68
2021/04/12 14:17:19;;;;;;;;;;;9.30;58.50;;;;;;5091429;28;19927;-69
2021/04/12 14:19:51;;;;;;;;;;;9.50;61.60;;;;;;5076517;28;19916;-68
2021/04/12 14:22:24;;;;;;;;;;;9.40;61.30;;;;;;5092458;28;20417;-70
2021/04/12 14:24:53;;;;;;;;;;;9.40;59.80;;;;;;5090255;28;19915;-69
2021/04/12 14:27:19;;;;;;;;;;;9.20;61.70;;;;;;5087876;28;20008;-70
2021/04/12 14:29:45;;;;;;;;;;;9.20;60.50;;;;;;5094863;28;19970;-69
2021/04/12 14:32:33;;;;;;;;;;;9.30;62.90;;;;;;5088648;28;19920;-70
2021/04/12 14:35:03;;;;;;;;;;;9.40;62.50;;;;;;5088490;28;19935;-69
2021/04/12 14:37:29;;;;;;;;;;;9.70;58.10;;;;;;5093135;28;19965;-70
2021/04/12 14:40:18;;;;;;;;;;;9.80;57.60;;;;;;5086723;28;20024;-69
2021/04/12 14:42:45;;;;;;;;;;;9.40;57.30;;;;;;5065264;28;19920;-69
2021/04/12 14:45:11;;;;;;;;;;;9.20;58.60;;;;;;5071263;28;19920;-69
2021/04/12 14:47:52;;;;;;;;;;;9.10;58.00;;;;;;5087971;28;19922;-69
2021/04/12 14:50:25;;;;;;;;;;;9.10;60.40;;;;;;5084513;28;20035;-69
2021/04/12 14:52:50;;;;;;;;;;;9.10;59.80;;;;;;5090204;28;20396;-69
2021/04/12 14:55:18;;;;;;;;;;;9.30;61.50;;;;;;5089535;28;19920;-70
2021/04/12 14:57:45;;;;;;;;;;;9.10;63.10;;;;;;5093967;28;19947;-69
2021/04/12 15:00:13;;;;;;;;;;;8.70;65.80;;;;;;5090730;28;19940;-69
2021/04/12 15:02:50;;;;;;;;;;;8.30;70.10;;;;;;5086831;28;20289;-69
2021/04/12 15:05:17;;;;;;;;;;;8.20;70.60;;;;;;5088039;28;20045;-69
2021/04/12 15:07:44;;;;;;;;;;;7.90;71.40;;;;;;5089531;28;19922;-69
2021/04/12 15:10:18;;;;;;;;;;;8.00;72.20;;;;;;5090693;28;20559;-69
2021/04/12 15:12:46;;;;;;;;;;;8.00;71.70;;;;;;5085728;28;19964;-70
2021/04/12 15:15:13;;;;;;;;;;;7.80;72.30;;;;;;5085808;28;19912;-69